Japan Airlines Virtual Airport Information Service

Amami Airport

ICAO: RJKA Country: Japan
Latitude: 28.4306 Longitude: 129.712
Latest Arrival : JAC3844 (RJKN-RJKA) Latest Departure : JAC3734 (RJKA-RJFK)


WX CaptureLIVE
Data provided by noaa.gov | Fetched at 15:14:22

METAR : RJKA 281000Z 32016G29KT 290V350 9999 FEW040 SCT050 BKN060 15/07 Q1016

TAF :


Runway Data for RJKA
Data provided by openaviationdata.com

Runway ID Mag Var Hdg Length Elevation Surface ILS Freq ILS Id ILS Slope
3 -4 30° 6575 ft 14 ft Asphalt 109.3 IAM 3
21 -4 210° 6575 ft 14 ft Asphalt -- -- --

Amami Airport, Japan
Use only for reference purposes



Not for navigational purposes.